Time;durP1;ratioP1;P1;durP2;ratioP2;P2;SDS_P1;SDS_P2;PMS_P1;PMS_P2;Temp;Humidity;BMP_temperature;BMP_pressure;BME280_temperature;BME280_humidity;BME280_pressure;Samples;Min_cycle;Max_cycle;Signal;HPM_P1;HPM_P2
2022/10/13 00:00:04;;;;;;;3.10;2.47;;;;;;;;;;9907364;29;20085;-63
2022/10/13 00:05:10;;;;;;;5.65;3.30;;;;;;;;;;9924841;29;20119;-64
2022/10/13 00:10:11;;;;;;;6.60;3.13;;;;;;;;;;9929674;29;20088;-62
2022/10/13 00:15:10;;;;;;;7.93;2.55;;;;;;;;;;9927305;29;20096;-63
2022/10/13 00:20:10;;;;;;;10.70;2.22;;;;;;;;;;9926355;29;20092;-64
2022/10/13 00:25:09;;;;;;;3.38;2.58;;;;;;;;;;9926242;29;20088;-63
2022/10/13 00:30:08;;;;;;;6.57;2.28;;;;;;;;;;9924057;29;20125;-63
2022/10/13 00:35:07;;;;;;;3.80;2.63;;;;;;;;;;9909102;29;20518;-65
2022/10/13 00:40:08;;;;;;;3.97;2.33;;;;;;;;;;9923418;29;20084;-65
2022/10/13 00:45:07;;;;;;;5.03;2.35;;;;;;;;;;9929277;29;20084;-62
2022/10/13 00:50:10;;;;;;;2.92;2.20;;;;;;;;;;9923156;29;20493;-63
2022/10/13 00:55:11;;;;;;;4.13;2.75;;;;;;;;;;9921951;29;20077;-64
2022/10/13 01:00:10;;;;;;;3.55;2.72;;;;;;;;;;9923192;29;20099;-64
2022/10/13 01:05:09;;;;;;;6.75;2.85;;;;;;;;;;9926213;29;20081;-63
2022/10/13 01:10:07;;;;;;;5.00;2.20;;;;;;;;;;9922911;29;20080;-64
2022/10/13 01:15:11;;;;;;;3.95;2.70;;;;;;;;;;9923388;29;20073;-64
2022/10/13 01:20:26;;;;;;;3.53;2.45;;;;;;;;;;9921927;29;20081;-63
2022/10/13 01:25:33;;;;;;;4.20;3.03;;;;;;;;;;9918447;29;20085;-64
2022/10/13 01:30:34;;;;;;;5.75;3.03;;;;;;;;;;9919311;29;20423;-62
2022/10/13 01:35:39;;;;;;;5.45;3.60;;;;;;;;;;9925240;29;20077;-64
2022/10/13 01:40:40;;;;;;;5.95;4.32;;;;;;;;;;9924368;29;20084;-63
2022/10/13 01:45:43;;;;;;;11.48;4.78;;;;;;;;;;9919911;29;20482;-64
2022/10/13 01:50:43;;;;;;;;;;;;;;;;;;9923374;29;20080;-64
2022/10/13 01:55:48;;;;;;;4.88;3.15;;;;;;;;;;9922596;29;19978;-63
2022/10/13 02:00:53;;;;;;;3.72;2.63;;;;;;;;;;9922133;29;20089;-63
2022/10/13 02:05:57;;;;;;;2.63;2.10;;;;;;;;;;9929800;29;20084;-63
2022/10/13 02:10:58;;;;;;;3.08;2.65;;;;;;;;;;9933382;29;20091;-63
2022/10/13 02:16:00;;;;;;;4.10;2.10;;;;;;;;;;9926269;29;20085;-63
2022/10/13 02:20:58;;;;;;;3.85;2.42;;;;;;;;;;9930881;29;20091;-64
2022/10/13 02:25:57;;;;;;;3.60;2.35;;;;;;;;;;9927744;29;20085;-65
2022/10/13 02:30:55;;;;;;;5.47;2.60;;;;;;;;;;9927567;29;20087;-63
2022/10/13 02:35:55;;;;;;;4.47;2.60;;;;;;;;;;9930706;29;20111;-64
2022/10/13 02:40:53;;;;;;;2.78;2.13;;;;;;;;;;9930247;29;20471;-64
2022/10/13 02:45:52;;;;;;;4.43;2.00;;;;;;;;;;9928180;29;20084;-64
2022/10/13 02:50:50;;;;;;;3.55;2.20;;;;;;;;;;9929580;29;20083;-63
2022/10/13 02:55:52;;;;;;;6.32;2.63;;;;;;;;;;9927741;29;20088;-64
2022/10/13 03:00:51;;;;;;;6.53;2.60;;;;;;;;;;9926898;29;20081;-63
2022/10/13 03:05:50;;;;;;;4.25;2.55;;;;;;;;;;9926888;29;20490;-64
2022/10/13 03:10:52;;;;;;;4.78;2.53;;;;;;;;;;9928724;29;20088;-65
2022/10/13 03:15:51;;;;;;;3.33;2.20;;;;;;;;;;9925346;29;20077;-63
2022/10/13 03:20:55;;;;;;;6.47;2.50;;;;;;;;;;9927368;29;20081;-63
2022/10/13 03:25:55;;;;;;;3.92;2.63;;;;;;;;;;9927379;29;20132;-64
2022/10/13 03:30:59;;;;;;;9.52;4.70;;;;;;;;;;9926126;29;20088;-64
2022/10/13 03:35:58;;;;;;;8.15;6.15;;;;;;;;;;9928046;29;20119;-65
2022/10/13 03:40:58;;;;;;;13.15;6.25;;;;;;;;;;9927591;29;20107;-64
2022/10/13 03:45:57;;;;;;;11.38;6.55;;;;;;;;;;9921627;29;20450;-64
2022/10/13 03:50:55;;;;;;;16.50;7.47;;;;;;;;;;9922429;29;20537;-64
2022/10/13 03:55:54;;;;;;;9.40;6.50;;;;;;;;;;9941403;29;20092;-63
2022/10/13 04:00:54;;;;;;;13.43;6.68;;;;;;;;;;9934410;29;20088;-63
2022/10/13 04:05:53;;;;;;;9.90;5.70;;;;;;;;;;9931763;29;20228;-63
2022/10/13 04:10:58;;;;;;;10.73;5.47;;;;;;;;;;9936149;29;20099;-63
2022/10/13 04:16:01;;;;;;;11.95;6.43;;;;;;;;;;9931526;29;20521;-64
2022/10/13 04:20:59;;;;;;;7.50;3.83;;;;;;;;;;9943537;29;20088;-64
2022/10/13 04:25:57;;;;;;;4.95;3.40;;;;;;;;;;9933426;29;20103;-65
2022/10/13 04:30:58;;;;;;;10.43;4.72;;;;;;;;;;9928825;29;20124;-62
2022/10/13 04:35:58;;;;;;;7.05;3.97;;;;;;;;;;9921664;29;20088;-63
2022/10/13 04:40:56;;;;;;;14.05;3.97;;;;;;;;;;9933384;29;20088;-64
2022/10/13 04:46:02;;;;;;;15.77;4.32;;;;;;;;;;9921522;29;20537;-64
2022/10/13 04:51:01;;;;;;;9.60;3.53;;;;;;;;;;9928572;29;20069;-65
2022/10/13 04:56:00;;;;;;;9.77;3.08;;;;;;;;;;9919160;29;20089;-64
2022/10/13 05:00:59;;;;;;;10.68;4.10;;;;;;;;;;9924080;29;20088;-63
2022/10/13 05:05:59;;;;;;;11.00;6.55;;;;;;;;;;9924935;29;20190;-64
2022/10/13 05:10:58;;;;;;;9.70;5.28;;;;;;;;;;9922614;29;20512;-64
2022/10/13 05:15:57;;;;;;;14.05;4.40;;;;;;;;;;9920758;29;20084;-64
2022/10/13 05:20:55;;;;;;;6.95;5.03;;;;;;;;;;9922405;29;20119;-64
2022/10/13 05:25:55;;;;;;;9.40;4.75;;;;;;;;;;9927048;29;20077;-63
2022/10/13 05:30:55;;;;;;;15.93;6.70;;;;;;;;;;9927822;29;20085;-64
2022/10/13 05:35:53;;;;;;;22.77;11.98;;;;;;;;;;9918846;29;20057;-62
2022/10/13 05:40:51;;;;;;;31.38;14.38;;;;;;;;;;9929249;29;20526;-65
2022/10/13 05:45:51;;;;;;;24.23;10.48;;;;;;;;;;9927619;29;20076;-64
2022/10/13 05:50:51;;;;;;;20.08;11.77;;;;;;;;;;9926632;29;20093;-62
2022/10/13 05:55:50;;;;;;;30.30;12.85;;;;;;;;;;9927830;29;20519;-63
2022/10/13 06:00:48;;;;;;;24.20;10.45;;;;;;;;;;9926191;29;20734;-64
2022/10/13 06:05:48;;;;;;;30.30;12.27;;;;;;;;;;9931557;29;20084;-65
2022/10/13 06:10:46;;;;;;;38.92;14.05;;;;;;;;;;9939371;29;20083;-65
2022/10/13 06:15:44;;;;;;;36.80;13.30;;;;;;;;;;9926220;29;20499;-64
2022/10/13 06:20:43;;;;;;;30.02;14.48;;;;;;;;;;9928072;29;20091;-64
2022/10/13 06:25:52;;;;;;;27.92;11.57;;;;;;;;;;9928312;29;20490;-64
2022/10/13 06:30:55;;;;;;;19.35;9.57;;;;;;;;;;9925461;29;20088;-63
2022/10/13 06:35:53;;;;;;;33.58;13.45;;;;;;;;;;9927807;29;20084;-64
2022/10/13 06:40:53;;;;;;;29.42;13.48;;;;;;;;;;9930197;29;20084;-64
2022/10/13 06:45:53;;;;;;;34.40;15.50;;;;;;;;;;9924327;29;20411;-64
2022/10/13 06:50:51;;;;;;;37.80;18.23;;;;;;;;;;9925121;29;20087;-63
2022/10/13 06:55:49;;;;;;;27.45;12.55;;;;;;;;;;9924356;29;20085;-64
2022/10/13 07:00:51;;;;;;;28.27;13.63;;;;;;;;;;9924674;29;20456;-65
2022/10/13 07:05:49;;;;;;;34.70;14.75;;;;;;;;;;9928865;29;20484;-63
2022/10/13 07:10:47;;;;;;;27.67;10.57;;;;;;;;;;9923900;29;20112;-64
2022/10/13 07:15:45;;;;;;;31.83;13.52;;;;;;;;;;9924072;29;20444;-65
2022/10/13 07:20:45;;;;;;;32.60;13.25;;;;;;;;;;9934670;29;20072;-64
2022/10/13 07:25:55;;;;;;;15.48;7.35;;;;;;;;;;9923736;29;20081;-65
2022/10/13 07:30:54;;;;;;;12.52;6.80;;;;;;;;;;9924215;29;20100;-65
2022/10/13 07:35:53;;;;;;;22.02;7.60;;;;;;;;;;9925754;29;20092;-65
2022/10/13 07:40:52;;;;;;;21.35;7.72;;;;;;;;;;9923024;29;20084;-65
2022/10/13 07:45:50;;;;;;;14.10;7.20;;;;;;;;;;9924193;29;20052;-64
2022/10/13 07:50:50;;;;;;;18.98;6.88;;;;;;;;;;9922566;29;20049;-64
2022/10/13 07:55:49;;;;;;;17.08;8.05;;;;;;;;;;9922584;29;20073;-64
2022/10/13 08:00:55;;;;;;;21.77;8.35;;;;;;;;;;9921871;29;20084;-65
2022/10/13 08:05:55;;;;;;;33.38;19.45;;;;;;;;;;9921134;29;20090;-65
2022/10/13 08:10:55;;;;;;;22.73;5.50;;;;;;;;;;9924500;29;20081;-64
2022/10/13 08:15:53;;;;;;;22.63;15.23;;;;;;;;;;9922661;29;20474;-65
2022/10/13 08:20:53;;;;;;;14.55;7.40;;;;;;;;;;9922570;29;20507;-63
2022/10/13 08:26:14;;;;;;;9.30;4.50;;;;;;;;;;9922063;29;20080;-66
2022/10/13 08:31:13;;;;;;;3.90;2.42;;;;;;;;;;9924018;29;20083;-65
2022/10/13 08:36:11;;;;;;;7.07;3.05;;;;;;;;;;9922348;29;20091;-65
2022/10/13 08:41:17;;;;;;;6.57;3.58;;;;;;;;;;9921786;29;20073;-65
2022/10/13 08:46:19;;;;;;;20.92;14.75;;;;;;;;;;9921506;29;20115;-65
2022/10/13 08:51:18;;;;;;;16.25;8.02;;;;;;;;;;9926664;29;20084;-64
2022/10/13 08:56:19;;;;;;;9.20;3.85;;;;;;;;;;9921759;29;20508;-64
2022/10/13 09:01:19;;;;;;;4.72;3.65;;;;;;;;;;9920752;29;20170;-65
2022/10/13 09:06:26;;;;;;;7.40;3.65;;;;;;;;;;9927252;29;20084;-64
2022/10/13 09:11:28;;;;;;;9.50;3.83;;;;;;;;;;9920430;29;20099;-63
2022/10/13 09:16:30;;;;;;;6.18;3.65;;;;;;;;;;9926259;29;20084;-64
2022/10/13 09:21:29;;;;;;;10.27;3.40;;;;;;;;;;9930756;29;20529;-64
2022/10/13 09:26:28;;;;;;;7.63;3.35;;;;;;;;;;9932760;29;20085;-65
2022/10/13 09:31:29;;;;;;;9.77;3.22;;;;;;;;;;9928654;29;20129;-64
2022/10/13 09:36:28;;;;;;;4.13;2.88;;;;;;;;;;9927651;29;20256;-65
2022/10/13 09:41:26;;;;;;;4.40;2.20;;;;;;;;;;9927025;29;20076;-64
2022/10/13 09:46:26;;;;;;;6.78;2.72;;;;;;;;;;9927212;29;20077;-64
2022/10/13 09:51:29;;;;;;;5.85;2.13;;;;;;;;;;9926577;29;20080;-64
2022/10/13 09:56:30;;;;;;;2.72;1.92;;;;;;;;;;9927732;29;20076;-64
2022/10/13 10:01:33;;;;;;;4.93;2.88;;;;;;;;;;9927850;29;20953;-65
2022/10/13 10:06:32;;;;;;;3.85;2.78;;;;;;;;;;9928371;29;20090;-63
2022/10/13 10:11:33;;;;;;;5.40;2.25;;;;;;;;;;9926625;29;20527;-62
2022/10/13 10:16:35;;;;;;;5.68;1.98;;;;;;;;;;9928160;29;20103;-65
2022/10/13 10:21:36;;;;;;;15.05;3.20;;;;;;;;;;9926315;29;20068;-64
2022/10/13 10:26:42;;;;;;;6.25;3.08;;;;;;;;;;9925647;29;20077;-64
2022/10/13 10:31:50;;;;;;;6.78;3.65;;;;;;;;;;9927785;29;20073;-64
2022/10/13 10:36:51;;;;;;;4.82;2.15;;;;;;;;;;9925246;29;20530;-64
2022/10/13 10:41:54;;;;;;;3.88;2.08;;;;;;;;;;9925542;29;20084;-64
2022/10/13 10:46:55;;;;;;;4.90;1.67;;;;;;;;;;9925737;29;20084;-64
2022/10/13 10:51:54;;;;;;;4.82;2.58;;;;;;;;;;9922709;29;20092;-65
2022/10/13 10:56:54;;;;;;;3.60;2.03;;;;;;;;;;9927288;29;20085;-65
2022/10/13 11:02:00;;;;;;;13.88;2.83;;;;;;;;;;9925051;29;20049;-64
2022/10/13 11:06:58;;;;;;;3.72;1.90;;;;;;;;;;9926651;29;20080;-64
2022/10/13 11:11:56;;;;;;;4.43;2.05;;;;;;;;;;9924313;29;20077;-65
2022/10/13 11:17:16;;;;;;;5.78;1.98;;;;;;;;;;9924442;29;20080;-65
2022/10/13 11:22:15;;;;;;;4.82;2.00;;;;;;;;;;9924612;29;20088;-64
2022/10/13 11:27:23;;;;;;;1.92;1.63;;;;;;;;;;9922865;29;20550;-66
2022/10/13 11:32:43;;;;;;;5.18;1.92;;;;;;;;;;9923779;29;20080;-64
2022/10/13 11:37:49;;;;;;;2.75;2.53;;;;;;;;;;9923041;29;20084;-64
2022/10/13 11:43:15;;;;;;;8.82;1.90;;;;;;;;;;9922299;29;20096;-64
2022/10/13 11:48:28;;;;;;;5.05;2.03;;;;;;;;;;9926559;29;20267;-65
2022/10/13 11:53:31;;;;;;;7.68;2.40;;;;;;;;;;9921802;29;20073;-64
2022/10/13 11:58:30;;;;;;;2.28;1.40;;;;;;;;;;9922532;29;20080;-64
2022/10/13 12:03:30;;;;;;;2.45;1.98;;;;;;;;;;9921712;29;20533;-64
2022/10/13 12:08:30;;;;;;;5.50;1.80;;;;;;;;;;9921506;29;20065;-63
2022/10/13 12:13:29;;;;;;;2.55;1.73;;;;;;;;;;9925387;29;20081;-65
2022/10/13 12:18:32;;;;;;;2.05;1.63;;;;;;;;;;9924604;29;20080;-64
2022/10/13 12:23:32;;;;;;;2.15;1.55;;;;;;;;;;9921832;29;20085;-64
2022/10/13 12:28:42;;;;;;;1.52;1.38;;;;;;;;;;9922375;29;20068;-65
2022/10/13 12:33:41;;;;;;;7.95;2.63;;;;;;;;;;9921023;29;20085;-64
2022/10/13 12:38:43;;;;;;;6.82;3.30;;;;;;;;;;9923433;29;20515;-68
2022/10/13 12:43:42;;;;;;;2.85;2.13;;;;;;;;;;9920719;29;20142;-65
2022/10/13 12:48:43;;;;;;;2.90;1.90;;;;;;;;;;9922514;29;20072;-65
2022/10/13 12:53:44;;;;;;;3.72;1.35;;;;;;;;;;9920483;29;20460;-65
2022/10/13 12:58:43;;;;;;;1.90;1.50;;;;;;;;;;9929378;29;20080;-65
2022/10/13 13:03:43;;;;;;;2.53;1.70;;;;;;;;;;9923354;29;20170;-64
2022/10/13 13:08:43;;;;;;;1.75;1.60;;;;;;;;;;9922637;29;20072;-64
2022/10/13 13:13:41;;;;;;;4.63;1.83;;;;;;;;;;9920220;29;20077;-64
2022/10/13 13:18:41;;;;;;;2.83;1.73;;;;;;;;;;9922029;29;20549;-65
2022/10/13 13:23:39;;;;;;;1.88;1.30;;;;;;;;;;9921684;29;20081;-64
2022/10/13 13:28:40;;;;;;;4.05;1.60;;;;;;;;;;9923001;29;20100;-64
2022/10/13 13:33:39;;;;;;;2.15;1.38;;;;;;;;;;9918490;29;20093;-64
2022/10/13 13:38:38;;;;;;;7.57;1.35;;;;;;;;;;9919679;29;20092;-64
2022/10/13 13:43:36;;;;;;;1.90;1.45;;;;;;;;;;9920108;29;20085;-64
2022/10/13 13:48:36;;;;;;;6.07;2.20;;;;;;;;;;9919940;29;20174;-65
2022/10/13 13:53:34;;;;;;;4.43;2.70;;;;;;;;;;9922512;29;20507;-64
2022/10/13 13:58:33;;;;;;;2.67;2.20;;;;;;;;;;9919806;29;20080;-64
2022/10/13 14:03:31;;;;;;;7.57;1.90;;;;;;;;;;9925086;29;20073;-64
2022/10/13 14:08:31;;;;;;;5.93;3.67;;;;;;;;;;9926690;29;20088;-65
2022/10/13 14:13:30;;;;;;;6.40;3.15;;;;;;;;;;9928507;29;20089;-65
2022/10/13 14:18:28;;;;;;;7.53;4.22;;;;;;;;;;9926354;29;20107;-65
2022/10/13 14:23:27;;;;;;;7.15;3.55;;;;;;;;;;9932070;29;20080;-64
2022/10/13 14:28:26;;;;;;;15.13;4.07;;;;;;;;;;9925458;29;20083;-65
2022/10/13 14:33:24;;;;;;;4.78;2.83;;;;;;;;;;9925635;29;20085;-64
2022/10/13 14:38:23;;;;;;;6.88;3.17;;;;;;;;;;9925501;29;20061;-64
2022/10/13 14:43:21;;;;;;;10.63;3.15;;;;;;;;;;9926130;29;20084;-64
2022/10/13 14:48:21;;;;;;;10.70;4.20;;;;;;;;;;9924675;29;20085;-65
2022/10/13 14:53:23;;;;;;;8.60;3.78;;;;;;;;;;9924598;29;20085;-64
2022/10/13 14:58:21;;;;;;;11.82;4.00;;;;;;;;;;9925048;29;20084;-64
2022/10/13 15:03:21;;;;;;;8.57;4.30;;;;;;;;;;9926766;29;20456;-63
2022/10/13 15:08:19;;;;;;;9.50;4.93;;;;;;;;;;9924101;29;20068;-65
2022/10/13 15:13:17;;;;;;;20.30;7.35;;;;;;;;;;9923988;29;20081;-64
2022/10/13 15:18:18;;;;;;;13.85;6.93;;;;;;;;;;9928996;29;20081;-64
2022/10/13 15:23:17;;;;;;;11.73;5.90;;;;;;;;;;9928327;29;20069;-65
2022/10/13 15:28:16;;;;;;;29.25;14.52;;;;;;;;;;9925527;29;20085;-63
2022/10/13 15:33:14;;;;;;;85.70;46.15;;;;;;;;;;9929957;29;20506;-64
2022/10/13 15:38:12;;;;;;;17.08;5.50;;;;;;;;;;9924826;29;20077;-64
2022/10/13 15:43:12;;;;;;;12.07;3.92;;;;;;;;;;9942209;29;20076;-65
2022/10/13 15:48:10;;;;;;;21.30;12.27;;;;;;;;;;9927204;29;20076;-64
2022/10/13 15:53:09;;;;;;;8.45;5.35;;;;;;;;;;9929437;29;20092;-65
2022/10/13 15:58:07;;;;;;;10.07;4.68;;;;;;;;;;9924359;29;20084;-63
2022/10/13 16:03:14;;;;;;;6.55;4.60;;;;;;;;;;9923958;29;20136;-66
2022/10/13 16:08:13;;;;;;;17.13;4.75;;;;;;;;;;9925359;29;20555;-65
2022/10/13 16:13:13;;;;;;;11.80;5.22;;;;;;;;;;9927322;29;20077;-65
2022/10/13 16:18:11;;;;;;;9.20;5.30;;;;;;;;;;9937373;29;20084;-67
2022/10/13 16:23:10;;;;;;;11.27;4.53;;;;;;;;;;9924829;29;20099;-65
2022/10/13 16:28:09;;;;;;;11.55;5.00;;;;;;;;;;9927723;29;20566;-66
2022/10/13 16:33:08;;;;;;;5.95;4.68;;;;;;;;;;9921167;29;20080;-65
2022/10/13 16:38:06;;;;;;;8.48;4.47;;;;;;;;;;9924448;29;20072;-66
2022/10/13 16:43:06;;;;;;;5.75;3.70;;;;;;;;;;9933667;29;20080;-66
2022/10/13 16:48:04;;;;;;;5.07;3.03;;;;;;;;;;9951605;29;20467;-65
2022/10/13 16:53:02;;;;;;;11.23;4.65;;;;;;;;;;9934048;29;20494;-65
2022/10/13 16:58:01;;;;;;;8.80;3.72;;;;;;;;;;9950687;29;20084;-64
2022/10/13 17:03:00;;;;;;;16.88;7.95;;;;;;;;;;9949419;29;20506;-64
2022/10/13 17:07:59;;;;;;;4.78;3.80;;;;;;;;;;9951235;29;20087;-64
2022/10/13 17:12:57;;;;;;;8.75;3.78;;;;;;;;;;9948788;29;20076;-65
2022/10/13 17:17:56;;;;;;;13.63;3.97;;;;;;;;;;9951698;29;20076;-64
2022/10/13 17:22:57;;;;;;;10.02;4.47;;;;;;;;;;9947794;29;20084;-66
2022/10/13 17:27:56;;;;;;;7.90;4.30;;;;;;;;;;9950704;29;20481;-65
2022/10/13 17:32:54;;;;;;;11.05;4.10;;;;;;;;;;9948859;29;20076;-64
2022/10/13 17:37:53;;;;;;;11.05;4.38;;;;;;;;;;9955494;29;20069;-64
2022/10/13 17:42:53;;;;;;;6.30;4.80;;;;;;;;;;9963703;29;20481;-65
2022/10/13 17:47:58;;;;;;;12.30;7.22;;;;;;;;;;9964740;29;20080;-64
2022/10/13 17:53:05;;;;;;;12.43;5.45;;;;;;;;;;9959103;29;20065;-64
2022/10/13 17:58:05;;;;;;;11.33;5.77;;;;;;;;;;9959299;29;20072;-64
2022/10/13 18:03:03;;;;;;;10.77;6.13;;;;;;;;;;9951337;29;20053;-67
2022/10/13 18:08:02;;;;;;;15.88;6.20;;;;;;;;;;9929723;29;20080;-65
2022/10/13 18:13:00;;;;;;;13.07;6.13;;;;;;;;;;9927848;29;20088;-65
2022/10/13 18:18:00;;;;;;;12.18;5.90;;;;;;;;;;9926566;29;20080;-64
2022/10/13 18:22:59;;;;;;;13.15;10.13;;;;;;;;;;9927328;29;20080;-65
2022/10/13 18:27:58;;;;;;;14.57;6.80;;;;;;;;;;9929319;29;20186;-64
2022/10/13 18:32:56;;;;;;;12.82;6.75;;;;;;;;;;9930165;29;20073;-65
2022/10/13 18:37:55;;;;;;;10.38;6.97;;;;;;;;;;9935113;29;20084;-66
2022/10/13 18:42:54;;;;;;;17.65;5.53;;;;;;;;;;9933358;29;20073;-64
2022/10/13 18:47:53;;;;;;;8.88;6.50;;;;;;;;;;9931894;29;20081;-66
2022/10/13 18:52:51;;;;;;;17.02;10.55;;;;;;;;;;9926841;29;20083;-64
2022/10/13 18:57:54;;;;;;;17.50;7.80;;;;;;;;;;9928591;29;20080;-66
2022/10/13 19:02:58;;;;;;;14.23;7.97;;;;;;;;;;9927518;29;20084;-65
2022/10/13 19:07:56;;;;;;;14.43;8.48;;;;;;;;;;9930545;29;20166;-64
2022/10/13 19:13:03;;;;;;;11.65;6.60;;;;;;;;;;9929823;29;20076;-65
2022/10/13 19:18:05;;;;;;;12.57;6.82;;;;;;;;;;9912605;29;20077;-67
2022/10/13 19:23:03;;;;;;;14.40;6.82;;;;;;;;;;9932650;29;20080;-65
2022/10/13 19:28:04;;;;;;;11.95;7.00;;;;;;;;;;9926694;29;20081;-65
2022/10/13 19:33:02;;;;;;;7.97;5.28;;;;;;;;;;9927711;29;20084;-64
2022/10/13 19:38:02;;;;;;;7.35;5.55;;;;;;;;;;9927199;29;20431;-65
2022/10/13 19:43:01;;;;;;;6.68;4.15;;;;;;;;;;9922721;29;20053;-65
2022/10/13 19:48:00;;;;;;;9.25;3.80;;;;;;;;;;9924685;29;20106;-64
2022/10/13 19:53:03;;;;;;;8.52;5.07;;;;;;;;;;9925840;29;20077;-66
2022/10/13 19:58:01;;;;;;;8.52;4.60;;;;;;;;;;9930234;29;20093;-65
2022/10/13 20:03:01;;;;;;;6.75;4.20;;;;;;;;;;9930815;29;20072;-64
2022/10/13 20:07:59;;;;;;;14.35;4.82;;;;;;;;;;9925649;29;20091;-64
2022/10/13 20:12:59;;;;;;;8.32;5.07;;;;;;;;;;9922990;29;20085;-63
2022/10/13 20:17:58;;;;;;;11.55;4.30;;;;;;;;;;9925685;29;20076;-65
2022/10/13 20:22:59;;;;;;;5.43;3.42;;;;;;;;;;9923177;29;20079;-65
2022/10/13 20:27:57;;;;;;;8.02;4.43;;;;;;;;;;9927207;29;20527;-65
2022/10/13 20:32:56;;;;;;;5.57;3.58;;;;;;;;;;9927497;29;20085;-64
2022/10/13 20:37:55;;;;;;;5.20;4.10;;;;;;;;;;9925126;29;20076;-65
2022/10/13 20:42:56;;;;;;;6.18;4.07;;;;;;;;;;9923816;29;20077;-64
2022/10/13 20:47:54;;;;;;;6.43;4.22;;;;;;;;;;9922096;29;20093;-64
2022/10/13 20:52:53;;;;;;;8.73;4.60;;;;;;;;;;9923328;29;20089;-66
2022/10/13 20:57:55;;;;;;;8.38;4.18;;;;;;;;;;9923707;29;20092;-64
2022/10/13 21:02:54;;;;;;;6.45;4.78;;;;;;;;;;9921906;29;20088;-65
2022/10/13 21:07:58;;;;;;;7.47;4.68;;;;;;;;;;9926204;29;20089;-65
2022/10/13 21:13:01;;;;;;;6.43;4.25;;;;;;;;;;9927518;29;20080;-66
2022/10/13 21:18:00;;;;;;;8.38;4.75;;;;;;;;;;9928616;29;20057;-64
2022/10/13 21:22:58;;;;;;;6.82;4.10;;;;;;;;;;9929471;29;20088;-64
2022/10/13 21:27:57;;;;;;;5.00;4.05;;;;;;;;;;9928770;29;20081;-65
2022/10/13 21:32:57;;;;;;;6.70;3.80;;;;;;;;;;9931304;29;20083;-64
2022/10/13 21:37:55;;;;;;;5.55;3.38;;;;;;;;;;9931193;29;20080;-64
2022/10/13 21:42:53;;;;;;;5.05;3.60;;;;;;;;;;9930486;29;20166;-64
2022/10/13 21:47:52;;;;;;;7.38;3.53;;;;;;;;;;9930887;29;20478;-65
2022/10/13 21:52:51;;;;;;;4.15;2.85;;;;;;;;;;9928732;29;20171;-64
2022/10/13 21:57:55;;;;;;;7.32;3.60;;;;;;;;;;9928109;29;20084;-63
2022/10/13 22:02:59;;;;;;;10.05;5.13;;;;;;;;;;9927892;29;20067;-64
2022/10/13 22:07:58;;;;;;;6.68;4.68;;;;;;;;;;9927621;29;20081;-64
2022/10/13 22:12:57;;;;;;;9.90;4.55;;;;;;;;;;9927006;29;20491;-63
2022/10/13 22:17:55;;;;;;;7.70;3.65;;;;;;;;;;9926887;29;20088;-65
2022/10/13 22:22:54;;;;;;;7.72;4.00;;;;;;;;;;9927146;29;20530;-65
2022/10/13 22:27:53;;;;;;;3.80;3.13;;;;;;;;;;9926705;29;20092;-65
2022/10/13 22:32:51;;;;;;;5.22;3.67;;;;;;;;;;9928651;29;20084;-65
2022/10/13 22:37:50;;;;;;;9.23;4.35;;;;;;;;;;9927420;29;20104;-64
2022/10/13 22:42:48;;;;;;;5.30;3.15;;;;;;;;;;9928372;29;20464;-65
2022/10/13 22:47:49;;;;;;;11.30;4.68;;;;;;;;;;9928477;29;20084;-64
2022/10/13 22:52:47;;;;;;;8.63;4.10;;;;;;;;;;9930920;29;20081;-65
2022/10/13 22:57:46;;;;;;;6.65;3.72;;;;;;;;;;9924584;29;20143;-64
2022/10/13 23:02:44;;;;;;;6.10;3.33;;;;;;;;;;9924635;29;20063;-65
2022/10/13 23:07:44;;;;;;;5.68;3.85;;;;;;;;;;9929032;29;20088;-65
2022/10/13 23:12:42;;;;;;;5.38;3.72;;;;;;;;;;9926722;29;20115;-64
2022/10/13 23:17:40;;;;;;;6.50;3.58;;;;;;;;;;9925005;29;20072;-64
2022/10/13 23:22:38;;;;;;;8.23;3.63;;;;;;;;;;9931098;29;20533;-64
2022/10/13 23:27:38;;;;;;;5.30;3.50;;;;;;;;;;9925702;29;20522;-64
2022/10/13 23:32:36;;;;;;;7.10;3.60;;;;;;;;;;9925543;29;20079;-64
2022/10/13 23:37:34;;;;;;;4.55;3.42;;;;;;;;;;9925796;29;20523;-65
2022/10/13 23:42:35;;;;;;;5.35;2.70;;;;;;;;;;9925647;29;20077;-64
2022/10/13 23:47:34;;;;;;;4.00;3.45;;;;;;;;;;9931021;29;20091;-65
2022/10/13 23:52:32;;;;;;;4.00;3.03;;;;;;;;;;9937018;29;20080;-64
2022/10/13 23:57:31;;;;;;;4.13;3.05;;;;;;;;;;9924999;29;20072;-64
